Time;durP1;ratioP1;P1;durP2;ratioP2;P2;SDS_P1;SDS_P2;PMS_P1;PMS_P2;Temp;Humidity;BMP_temperature;BMP_pressure;BME280_temperature;BME280_humidity;BME280_pressure;Samples;Min_cycle;Max_cycle;Signal;HPM_P1;HPM_P2
2024/02/14 00:00:00;;;;;;;3.20;2.70;;;;;;;6.41;79.58;93065.50;519714;28;1033;-71
2024/02/14 00:00:16;;;;;;;3.38;2.50;;;;;;;6.40;79.49;93058.53;519585;28;794;-70
2024/02/14 00:00:31;;;;;;;3.37;2.60;;;;;;;6.41;79.55;93068.25;519659;28;785;-71
2024/02/14 00:00:47;;;;;;;2.97;2.67;;;;;;;6.39;79.54;93057.06;519659;28;837;-71
2024/02/14 00:01:02;;;;;;;2.60;2.40;;;;;;;6.40;79.46;93064.75;519601;28;935;-71
2024/02/14 00:01:18;;;;;;;2.45;2.25;;;;;;;6.40;79.56;93064.00;519661;28;789;-70
2024/02/14 00:01:35;;;;;;;2.45;2.25;;;;;;;6.40;79.45;93059.28;519657;28;857;-71
2024/02/14 00:01:51;;;;;;;2.72;2.53;;;;;;;6.37;79.50;93059.59;519682;28;912;-70
2024/02/14 00:02:06;;;;;;;2.97;2.67;;;;;;;6.39;79.54;93060.53;519550;28;1074;-70
2024/02/14 00:02:22;;;;;;;2.90;2.60;;;;;;;6.15;79.43;93032.66;519572;28;777;-71
2024/02/14 00:02:37;;;;;;;2.63;2.33;;;;;;;6.41;79.61;93062.75;519761;28;853;-70
2024/02/14 00:02:53;;;;;;;2.20;2.00;;;;;;;6.41;79.69;93066.22;519653;28;829;-71
2024/02/14 00:03:08;;;;;;;2.27;2.07;;;;;;;6.39;79.71;93060.53;519641;28;786;-70
2024/02/14 00:03:24;;;;;;;2.30;2.10;;;;;;;6.39;79.80;93060.53;519633;28;818;-70
2024/02/14 00:03:39;;;;;;;2.20;2.00;;;;;;;6.39;79.75;93057.78;519630;28;865;-71
2024/02/14 00:03:55;;;;;;;2.10;1.90;;;;;;;6.40;79.94;93069.50;519617;28;837;-70
2024/02/14 00:04:11;;;;;;;2.00;1.80;;;;;;;6.40;79.96;93064.00;519704;28;774;-71
2024/02/14 00:04:26;;;;;;;2.00;1.80;;;;;;;6.40;80.05;93061.28;519592;28;932;-70
2024/02/14 00:04:42;;;;;;;1.70;1.60;;;;;;;6.41;80.04;93060.03;519628;28;801;-71
2024/02/14 00:04:57;;;;;;;1.60;1.50;;;;;;;6.41;79.97;93066.22;519632;28;805;-71
2024/02/14 00:05:13;;;;;;;1.50;1.40;;;;;;;6.40;80.10;93064.00;519568;28;849;-71
2024/02/14 00:05:28;;;;;;;1.50;1.40;;;;;;;6.38;80.29;93069.28;519773;28;958;-70
2024/02/14 00:05:44;;;;;;;1.73;1.63;;;;;;;6.37;80.46;93063.06;519605;28;841;-70
2024/02/14 00:06:00;;;;;;;1.75;1.55;;;;;;;6.39;80.53;93062.56;519671;28;864;-71
2024/02/14 00:06:15;;;;;;;1.60;1.40;;;;;;;6.39;80.58;93068.75;519558;28;857;-70
2024/02/14 00:06:36;;;;;;;1.58;1.35;;;;;;;6.23;80.75;93047.94;519636;28;912;-70
2024/02/14 00:06:51;;;;;;;1.38;1.23;;;;;;;6.38;80.54;93063.81;519670;28;833;-71
2024/02/14 00:07:06;;;;;;;1.27;1.10;;;;;;;6.39;80.61;93065.31;519656;28;809;-70
2024/02/14 00:07:22;;;;;;;1.40;1.20;;;;;;;6.39;80.51;93068.03;519617;28;798;-71
2024/02/14 00:07:39;;;;;;;1.57;1.43;;;;;;;6.39;80.57;93060.53;519627;28;754;-70
2024/02/14 00:07:54;;;;;;;1.50;1.40;;;;;;;6.40;80.53;93069.50;519645;28;916;-70
2024/02/14 00:08:11;;;;;;;1.85;1.50;;;;;;;6.39;80.60;93068.75;519703;28;790;-71
2024/02/14 00:08:26;;;;;;;2.00;1.50;;;;;;;6.39;80.48;93073.53;519614;28;977;-71
2024/02/14 00:08:41;;;;;;;1.40;1.30;;;;;;;6.41;80.61;93060.72;519633;28;810;-71
2024/02/14 00:08:57;;;;;;;1.40;1.30;;;;;;;6.40;80.54;93069.50;519724;28;868;-71
2024/02/14 00:09:12;;;;;;;1.50;1.40;;;;;;;6.41;80.50;93076.47;519568;28;865;-71
2024/02/14 00:09:28;;;;;;;1.58;1.48;;;;;;;6.41;80.63;93068.97;519764;28;778;-71
2024/02/14 00:09:43;;;;;;;1.50;1.40;;;;;;;6.40;80.60;93070.25;519567;28;936;-71
2024/02/14 00:09:59;;;;;;;1.58;1.45;;;;;;;6.42;80.62;93064.97;519706;28;782;-71
2024/02/14 00:10:14;;;;;;;1.83;1.63;;;;;;;6.42;80.56;93066.97;519612;28;904;-71
2024/02/14 00:10:29;;;;;;;1.83;1.73;;;;;;;6.42;80.55;93064.97;519652;28;770;-71
2024/02/14 00:10:45;;;;;;;1.95;1.60;;;;;;;6.42;80.55;93073.19;519579;28;1653;-71
2024/02/14 00:11:02;;;;;;;1.90;1.50;;;;;;;6.44;80.55;93065.16;519588;28;924;-71
2024/02/14 00:11:17;;;;;;;1.73;1.55;;;;;;;6.45;80.23;93068.66;519668;28;916;-70
2024/02/14 00:11:32;;;;;;;1.90;1.70;;;;;;;6.45;80.30;93069.41;519634;28;817;-71
2024/02/14 00:11:48;;;;;;;1.88;1.77;;;;;;;6.45;80.21;93071.41;519664;28;852;-71
2024/02/14 00:12:04;;;;;;;1.90;1.70;;;;;;;6.46;80.05;93072.84;519544;28;857;-71
2024/02/14 00:12:19;;;;;;;1.90;1.67;;;;;;;6.45;80.13;93063.91;519594;28;802;-71
2024/02/14 00:12:35;;;;;;;1.77;1.67;;;;;;;6.46;79.99;93073.59;519595;28;822;-70
2024/02/14 00:12:51;;;;;;;1.60;1.50;;;;;;;6.26;80.32;93037.91;519690;28;943;-71
2024/02/14 00:13:08;;;;;;;1.67;1.57;;;;;;;6.46;80.25;93067.38;519671;28;844;-71
2024/02/14 00:13:23;;;;;;;1.85;1.75;;;;;;;6.46;80.27;93070.84;519539;28;990;-71
2024/02/14 00:13:39;;;;;;;2.00;1.80;;;;;;;6.46;80.37;93073.59;519647;28;931;-71
2024/02/14 00:13:56;;;;;;;2.30;2.10;;;;;;;6.49;80.25;93077.28;519605;28;782;-71
2024/02/14 00:14:11;;;;;;;2.42;2.22;;;;;;;6.47;80.18;93072.34;519610;28;873;-71
2024/02/14 00:14:27;;;;;;;2.10;1.90;;;;;;;6.47;80.11;93071.59;519708;28;782;-71
2024/02/14 00:14:42;;;;;;;1.70;1.60;;;;;;;6.47;80.25;93075.09;519560;28;809;-70
2024/02/14 00:14:58;;;;;;;1.80;1.60;;;;;;;6.47;80.22;93075.09;519757;28;979;-71
2024/02/14 00:15:13;;;;;;;1.80;1.70;;;;;;;6.47;80.20;93069.59;519507;28;920;-71
2024/02/14 00:15:29;;;;;;;2.03;1.90;;;;;;;6.48;80.10;93073.81;519645;28;841;-71
2024/02/14 00:15:45;;;;;;;2.33;2.13;;;;;;;6.48;80.10;93070.31;519605;28;782;-71
2024/02/14 00:16:02;;;;;;;2.28;2.08;;;;;;;6.46;80.13;93073.59;519571;28;861;-71
2024/02/14 00:16:18;;;;;;;2.47;2.08;;;;;;;6.47;80.07;93071.59;519503;28;889;-71
2024/02/14 00:16:33;;;;;;;2.70;2.13;;;;;;;6.47;79.81;93074.34;519587;28;987;-71
2024/02/14 00:16:48;;;;;;;2.30;2.10;;;;;;;6.46;80.08;93073.59;517480;28;853;-71
2024/02/14 00:17:04;;;;;;;2.30;2.10;;;;;;;6.47;80.01;93069.59;517425;28;861;-71
2024/02/14 00:17:21;;;;;;;2.30;2.10;;;;;;;6.47;80.06;93071.59;515336;28;921;-71
2024/02/14 00:17:36;;;;;;;2.25;2.05;;;;;;;6.49;80.05;93071.81;515397;28;933;-71
2024/02/14 00:17:52;;;;;;;1.97;1.77;;;;;;;6.48;80.04;93068.31;515481;28;795;-71
2024/02/14 00:18:07;;;;;;;2.25;1.80;;;;;;;6.49;80.22;93069.06;515360;28;905;-71
2024/02/14 00:18:23;;;;;;;2.00;1.80;;;;;;;6.51;80.11;93074.75;515390;28;931;-71
2024/02/14 00:18:38;;;;;;;1.67;1.58;;;;;;;6.50;80.10;93076.75;515975;28;786;-71
2024/02/14 00:18:53;;;;;;;1.70;1.60;;;;;;;6.49;80.14;93078.03;517377;28;829;-71
2024/02/14 00:19:09;;;;;;;1.95;1.77;;;;;;;6.50;80.26;93070.53;517899;28;782;-71
2024/02/14 00:19:24;;;;;;;2.40;1.80;;;;;;;6.50;80.09;93073.25;519567;28;857;-71
2024/02/14 00:19:40;;;;;;;2.03;1.80;;;;;;;6.51;80.11;93077.50;519674;28;813;-71
2024/02/14 00:19:55;;;;;;;1.85;1.75;;;;;;;6.46;79.99;93068.13;519555;28;1915;-71
2024/02/14 00:20:12;;;;;;;1.97;1.83;;;;;;;6.50;80.13;93074.00;519516;28;778;-71
2024/02/14 00:20:27;;;;;;;2.28;1.92;;;;;;;6.51;80.21;93072.00;519658;28;825;-71
2024/02/14 00:20:43;;;;;;;2.63;1.90;;;;;;;6.50;80.36;93067.78;519550;28;829;-71
2024/02/14 00:20:59;;;;;;;3.00;2.10;;;;;;;6.50;80.28;93070.53;519634;28;1074;-71
2024/02/14 00:21:14;;;;;;;2.40;2.20;;;;;;;6.45;80.25;93065.91;519561;28;853;-71
2024/02/14 00:21:31;;;;;;;2.83;2.10;;;;;;;6.49;80.53;93071.81;519584;28;841;-71
2024/02/14 00:21:46;;;;;;;3.25;2.05;;;;;;;6.49;80.35;93075.28;519626;28;849;-71
2024/02/14 00:22:02;;;;;;;2.38;1.98;;;;;;;6.50;80.50;93073.25;519655;28;837;-71
2024/02/14 00:22:18;;;;;;;2.23;1.97;;;;;;;6.50;80.59;93068.53;519495;28;916;-71
2024/02/14 00:22:33;;;;;;;2.35;2.05;;;;;;;6.51;80.45;93070.00;519593;28;849;-71
2024/02/14 00:22:48;;;;;;;2.43;2.23;;;;;;;6.50;80.48;93071.25;519629;28;809;-71
2024/02/14 00:23:04;;;;;;;3.10;2.25;;;;;;;6.52;80.56;93073.50;519565;28;912;-71
2024/02/14 00:23:19;;;;;;;3.07;2.30;;;;;;;6.51;80.53;93069.25;519651;28;842;-71
2024/02/14 00:23:35;;;;;;;2.70;2.50;;;;;;;6.52;80.54;93076.25;519624;28;774;-71
2024/02/14 00:23:51;;;;;;;2.40;2.20;;;;;;;6.53;80.63;93074.94;519635;28;794;-71
2024/02/14 00:24:06;;;;;;;2.10;1.90;;;;;;;6.53;80.58;93077.69;519613;28;869;-71
2024/02/14 00:24:23;;;;;;;2.17;1.90;;;;;;;6.52;80.44;93068.00;519491;28;809;-71
2024/02/14 00:24:39;;;;;;;2.15;1.92;;;;;;;6.54;80.55;93070.97;519672;28;907;-71
2024/02/14 00:24:54;;;;;;;2.13;1.92;;;;;;;6.54;80.50;93071.66;519613;28;865;-71
2024/02/14 00:25:11;;;;;;;2.00;1.80;;;;;;;6.54;80.56;93077.16;519658;28;766;-70
2024/02/14 00:25:26;;;;;;;1.77;1.67;;;;;;;6.54;80.48;93074.41;520296;28;900;-71
2024/02/14 00:25:41;;;;;;;1.70;1.60;;;;;;;6.54;80.38;93068.22;519510;28;873;-71
2024/02/14 00:25:57;;;;;;;1.77;1.45;;;;;;;6.55;80.45;93078.66;519661;28;785;-71
2024/02/14 00:26:13;;;;;;;1.53;1.43;;;;;;;6.56;80.40;93080.09;519515;28;840;-71
2024/02/14 00:26:28;;;;;;;1.60;1.50;;;;;;;6.55;80.44;93070.41;517509;28;828;-71
2024/02/14 00:26:46;;;;;;;1.80;1.50;;;;;;;6.57;80.33;93075.34;517400;28;797;-71
2024/02/14 00:27:03;;;;;;;2.20;1.70;;;;;;;6.56;80.28;93073.91;517372;28;891;-71
2024/02/14 00:27:18;;;;;;;1.70;1.60;;;;;;;6.56;80.14;93069.13;517329;28;809;-70
2024/02/14 00:27:34;;;;;;;1.70;1.60;;;;;;;6.57;80.08;93075.34;517422;28;935;-71
2024/02/14 00:27:49;;;;;;;1.90;1.63;;;;;;;6.56;79.99;93071.16;517477;28;864;-71
2024/02/14 00:28:05;;;;;;;1.93;1.60;;;;;;;6.55;80.13;93075.91;517396;28;801;-71
2024/02/14 00:28:23;;;;;;;1.90;1.70;;;;;;;6.54;80.04;93070.97;518404;28;877;-71
2024/02/14 00:28:39;;;;;;;1.88;1.77;;;;;;;6.54;80.09;93068.94;519618;28;809;-71
2024/02/14 00:28:54;;;;;;;1.80;1.70;;;;;;;6.54;80.12;93073.69;519616;28;797;-71
2024/02/14 00:29:10;;;;;;;1.93;1.60;;;;;;;6.54;80.01;93074.41;519684;28;765;-71
2024/02/14 00:29:25;;;;;;;2.33;1.70;;;;;;;6.54;80.03;93073.69;519632;28;766;-71
2024/02/14 00:29:43;;;;;;;1.93;1.73;;;;;;;6.53;79.87;93072.22;519626;28;1039;-71
2024/02/14 00:29:59;;;;;;;1.98;1.75;;;;;;;6.53;80.07;93072.22;519644;28;915;-71
2024/02/14 00:30:14;;;;;;;2.20;1.77;;;;;;;6.52;80.12;93071.47;519544;28;888;-71
2024/02/14 00:30:30;;;;;;;1.93;1.70;;;;;;;6.53;80.05;93074.94;519626;28;916;-71
2024/02/14 00:30:45;;;;;;;1.98;1.77;;;;;;;6.52;80.13;93070.75;519629;28;781;-71
2024/02/14 00:31:01;;;;;;;2.17;1.80;;;;;;;6.51;80.08;93080.22;519620;28;888;-71
2024/02/14 00:31:16;;;;;;;1.70;1.60;;;;;;;6.50;80.12;93074.00;519536;28;817;-71
2024/02/14 00:31:32;;;;;;;2.10;1.90;;;;;;;6.50;80.20;93071.25;519591;28;746;-71
2024/02/14 00:31:47;;;;;;;2.22;2.03;;;;;;;6.49;80.16;93069.81;519649;28;793;-71
2024/02/14 00:32:03;;;;;;;1.90;1.80;;;;;;;6.47;80.28;93079.81;519631;28;776;-71
2024/02/14 00:32:18;;;;;;;2.00;1.80;;;;;;;6.45;80.29;93083.09;519519;28;914;-71
2024/02/14 00:32:34;;;;;;;2.17;1.60;;;;;;;6.46;80.23;93084.56;519499;28;947;-71
2024/02/14 00:32:50;;;;;;;2.03;1.58;;;;;;;6.46;80.06;93081.81;519588;28;1563;-71
2024/02/14 00:33:06;;;;;;;1.70;1.52;;;;;;;6.45;80.18;93082.38;519554;28;896;-71
2024/02/14 00:33:22;;;;;;;1.77;1.67;;;;;;;6.45;79.87;93076.88;519509;28;872;-71
2024/02/14 00:33:37;;;;;;;1.67;1.58;;;;;;;6.46;79.80;93081.09;519682;28;1079;-71
2024/02/14 00:33:52;;;;;;;1.67;1.47;;;;;;;6.45;79.87;93074.88;519530;28;868;-71
2024/02/14 00:34:08;;;;;;;2.10;1.60;;;;;;;6.44;79.80;93078.88;519653;28;789;-71
2024/02/14 00:34:23;;;;;;;2.08;1.70;;;;;;;6.45;79.81;93076.88;519540;28;817;-71
2024/02/14 00:34:39;;;;;;;1.73;1.60;;;;;;;6.46;79.97;93083.81;519635;28;789;-71
2024/02/14 00:34:54;;;;;;;1.88;1.65;;;;;;;6.46;79.37;93083.81;519552;28;828;-71
2024/02/14 00:35:10;;;;;;;1.80;1.63;;;;;;;6.47;79.63;93082.56;519609;28;1011;-71
2024/02/14 00:35:27;;;;;;;1.70;1.60;;;;;;;6.46;79.89;93079.09;519540;28;777;-70
2024/02/14 00:35:43;;;;;;;1.83;1.60;;;;;;;6.47;79.91;93080.56;519539;28;879;-70
2024/02/14 00:35:58;;;;;;;1.73;1.50;;;;;;;6.47;79.74;93075.09;519687;28;928;-70
2024/02/14 00:36:14;;;;;;;1.77;1.30;;;;;;;6.48;79.88;93087.50;519578;28;774;-70
2024/02/14 00:36:29;;;;;;;1.83;1.23;;;;;;;6.49;79.82;93080.03;519673;28;920;-71
2024/02/14 00:36:45;;;;;;;1.53;1.40;;;;;;;6.49;79.75;93083.50;519523;28;758;-71
2024/02/14 00:37:00;;;;;;;1.40;1.30;;;;;;;6.50;79.81;93084.22;519635;28;786;-71
2024/02/14 00:37:16;;;;;;;1.50;1.40;;;;;;;6.50;79.84;93084.97;519556;28;927;-71
2024/02/14 00:37:33;;;;;;;1.60;1.50;;;;;;;6.50;79.82;93082.22;519538;28;1086;-71
2024/02/14 00:37:48;;;;;;;1.30;1.20;;;;;;;6.50;79.54;93087.72;519606;28;888;-71
2024/02/14 00:38:04;;;;;;;1.30;1.20;;;;;;;6.51;79.63;93089.22;519502;28;1050;-71
2024/02/14 00:38:19;;;;;;;1.42;1.33;;;;;;;6.50;79.44;93084.97;519625;28;801;-70
2024/02/14 00:38:35;;;;;;;1.50;1.40;;;;;;;6.51;79.71;93088.47;519563;28;793;-71
2024/02/14 00:38:51;;;;;;;1.30;1.20;;;;;;;6.51;79.61;93080.22;519693;28;741;-71
2024/02/14 00:39:09;;;;;;;1.10;1.10;;;;;;;6.50;79.45;93084.97;519606;28;861;-71
2024/02/14 00:39:25;;;;;;;1.52;1.42;;;;;;;6.50;79.78;93086.97;519524;28;869;-70
2024/02/14 00:39:40;;;;;;;2.40;1.50;;;;;;;6.50;79.70;93089.72;519501;28;954;-71
2024/02/14 00:39:57;;;;;;;1.98;1.25;;;;;;;6.49;79.57;93077.28;519450;28;1918;-71
2024/02/14 00:40:13;;;;;;;1.17;1.08;;;;;;;6.48;79.53;93087.50;519527;28;1070;-71
2024/02/14 00:40:28;;;;;;;1.20;1.10;;;;;;;6.46;79.60;93081.81;519652;28;895;-71
2024/02/14 00:40:44;;;;;;;1.23;1.13;;;;;;;6.46;79.59;93078.34;519576;28;789;-71
2024/02/14 00:41:00;;;;;;;1.13;1.05;;;;;;;6.44;79.68;93087.09;519557;28;836;-70
2024/02/14 00:41:15;;;;;;;1.30;1.20;;;;;;;6.45;79.63;93088.59;519574;28;964;-71
2024/02/14 00:41:30;;;;;;;1.10;1.00;;;;;;;6.43;79.55;93085.63;519613;28;911;-71
2024/02/14 00:41:47;;;;;;;0.97;0.90;;;;;;;6.43;79.84;93079.41;519617;28;790;-71
2024/02/14 00:42:03;;;;;;;1.20;1.10;;;;;;;6.43;79.88;93080.13;517446;28;900;-71
2024/02/14 00:42:18;;;;;;;1.07;0.97;;;;;;;6.44;79.82;93080.88;517239;28;941;-71
2024/02/14 00:42:33;;;;;;;0.90;0.90;;;;;;;6.44;79.77;93083.63;517405;28;821;-71
2024/02/14 00:42:49;;;;;;;0.90;0.90;;;;;;;6.44;79.85;93081.63;517429;28;888;-71
2024/02/14 00:43:04;;;;;;;0.93;0.93;;;;;;;6.45;79.83;93076.88;517386;28;778;-71
2024/02/14 00:43:20;;;;;;;0.90;0.90;;;;;;;6.45;79.93;93088.59;517409;28;927;-71
2024/02/14 00:43:36;;;;;;;0.80;0.80;;;;;;;6.45;79.87;93082.38;517358;28;801;-71
2024/02/14 00:43:51;;;;;;;0.97;0.97;;;;;;;6.42;79.97;93084.16;517879;28;860;-71
2024/02/14 00:44:06;;;;;;;1.00;0.93;;;;;;;6.42;79.67;93084.16;519998;28;1116;-71
2024/02/14 00:44:22;;;;;;;0.70;0.70;;;;;;;6.42;79.73;93080.66;521632;28;853;-71
2024/02/14 00:44:37;;;;;;;0.70;0.70;;;;;;;6.42;79.69;93083.41;521749;28;844;-71
2024/02/14 00:44:53;;;;;;;0.80;0.80;;;;;;;6.42;79.68;93084.16;521623;28;924;-71
2024/02/14 00:45:09;;;;;;;0.90;0.80;;;;;;;6.41;79.56;93082.66;521653;28;774;-71
2024/02/14 00:45:24;;;;;;;0.70;0.70;;;;;;;6.41;79.46;93090.91;521634;28;785;-71
2024/02/14 00:45:39;;;;;;;0.68;0.68;;;;;;;6.38;79.63;93091.22;521684;28;781;-71
2024/02/14 00:45:56;;;;;;;0.70;0.70;;;;;;;6.34;79.51;93090.81;521676;28;790;-71
2024/02/14 00:46:18;;;;;;;0.60;0.60;;;;;;;6.30;79.65;93087.66;521647;28;901;-71
2024/02/14 00:46:33;;;;;;;0.68;0.68;;;;;;;6.29;79.36;93080.69;521537;28;868;-70
2024/02/14 00:46:49;;;;;;;0.77;0.70;;;;;;;6.30;79.36;93084.94;520953;28;1312;-70
2024/02/14 00:47:04;;;;;;;0.60;0.60;;;;;;;6.29;79.14;93083.44;519539;28;827;-71
2024/02/14 00:47:20;;;;;;;0.60;0.60;;;;;;;6.30;79.04;93085.66;519556;28;1055;-71
2024/02/14 00:47:36;;;;;;;0.80;0.80;;;;;;;6.30;79.18;93082.94;519499;28;833;-70
2024/02/14 00:47:51;;;;;;;0.80;0.80;;;;;;;6.31;79.07;93083.66;519372;28;1446;-71
2024/02/14 00:48:07;;;;;;;0.70;0.70;;;;;;;6.31;79.13;93087.13;519664;28;861;-71
2024/02/14 00:48:23;;;;;;;0.67;0.67;;;;;;;6.30;78.99;93087.66;519503;28;1100;-70
2024/02/14 00:48:38;;;;;;;0.60;0.60;;;;;;;6.31;78.93;93089.13;519677;28;797;-70
2024/02/14 00:48:54;;;;;;;0.60;0.60;;;;;;;6.31;78.91;93083.66;519532;28;908;-71
2024/02/14 00:49:10;;;;;;;0.80;0.80;;;;;;;6.31;78.82;93080.91;519567;28;793;-70
2024/02/14 00:49:26;;;;;;;0.80;0.77;;;;;;;6.31;78.89;93086.38;519527;28;837;-71
2024/02/14 00:49:41;;;;;;;0.80;0.80;;;;;;;6.29;79.29;93077.97;519618;28;798;-71
2024/02/14 00:49:57;;;;;;;0.87;0.87;;;;;;;6.31;78.84;93089.88;519641;28;781;-71
2024/02/14 00:50:13;;;;;;;0.80;0.80;;;;;;;6.32;79.08;93087.88;519612;28;868;-71
2024/02/14 00:50:29;;;;;;;0.82;0.82;;;;;;;6.32;78.95;93080.38;519649;28;893;-71
2024/02/14 00:50:44;;;;;;;0.82;0.82;;;;;;;6.32;79.13;93074.91;519563;28;1089;-71
2024/02/14 00:51:00;;;;;;;0.80;0.80;;;;;;;6.32;79.06;93085.13;519481;28;869;-71
2024/02/14 00:51:15;;;;;;;0.80;0.80;;;;;;;6.33;79.01;93083.84;519550;28;781;-70
2024/02/14 00:51:31;;;;;;;0.77;0.77;;;;;;;6.32;79.12;93085.88;519647;28;857;-71
2024/02/14 00:51:46;;;;;;;0.80;0.80;;;;;;;6.32;79.08;93080.38;519570;28;841;-71
2024/02/14 00:52:02;;;;;;;0.80;0.80;;;;;;;6.34;79.34;93086.06;519568;28;1066;-71
2024/02/14 00:52:17;;;;;;;0.70;0.70;;;;;;;6.34;79.11;93088.81;519607;28;789;-71
2024/02/14 00:52:33;;;;;;;0.80;0.80;;;;;;;6.34;79.14;93090.81;519447;28;814;-70
2024/02/14 00:52:48;;;;;;;0.90;0.90;;;;;;;6.34;79.18;93088.81;519613;28;900;-71
2024/02/14 00:53:04;;;;;;;0.82;0.82;;;;;;;6.15;79.20;93051.84;519590;28;809;-71
2024/02/14 00:53:19;;;;;;;0.90;0.90;;;;;;;6.35;79.26;93087.53;519447;28;1099;-71
2024/02/14 00:53:35;;;;;;;1.00;0.90;;;;;;;6.36;79.28;93088.28;519573;28;754;-71
2024/02/14 00:53:52;;;;;;;1.10;1.00;;;;;;;6.35;79.33;93078.56;519622;28;861;-71
2024/02/14 00:54:08;;;;;;;1.67;1.15;;;;;;;6.35;79.32;93086.78;519642;28;928;-71
2024/02/14 00:54:23;;;;;;;1.80;1.20;;;;;;;6.35;79.33;93089.53;519540;28;888;-70
2024/02/14 00:54:38;;;;;;;1.23;1.13;;;;;;;6.35;79.48;93084.78;519595;28;873;-71
2024/02/14 00:54:54;;;;;;;1.30;1.20;;;;;;;6.35;79.40;93081.31;519501;28;798;-71
2024/02/14 00:55:10;;;;;;;1.63;1.38;;;;;;;6.37;79.68;93087.00;519554;28;892;-71
2024/02/14 00:55:26;;;;;;;1.77;1.60;;;;;;;6.37;79.63;93081.50;519517;28;865;-70
2024/02/14 00:55:41;;;;;;;2.00;1.70;;;;;;;6.32;79.76;93079.66;519571;28;806;-71
2024/02/14 00:55:57;;;;;;;1.90;1.57;;;;;;;6.37;79.55;93078.78;519675;28;738;-70
2024/02/14 00:56:12;;;;;;;1.60;1.50;;;;;;;6.36;79.46;93075.31;519462;28;829;-70
2024/02/14 00:56:28;;;;;;;1.63;1.52;;;;;;;6.37;79.61;93084.25;519640;28;927;-70
2024/02/14 00:56:43;;;;;;;1.60;1.50;;;;;;;6.32;79.41;93071.44;519501;28;833;-70
2024/02/14 00:56:58;;;;;;;1.83;1.70;;;;;;;6.38;79.54;93085.75;519629;28;860;-70
2024/02/14 00:57:14;;;;;;;2.43;2.03;;;;;;;6.38;79.38;93083.00;519520;28;797;-70
2024/02/14 00:57:31;;;;;;;2.78;2.10;;;;;;;6.38;79.50;93077.53;519419;28;949;-70
2024/02/14 00:57:47;;;;;;;2.47;2.08;;;;;;;6.38;79.64;93072.03;519562;28;893;-70
2024/02/14 00:58:02;;;;;;;2.33;1.90;;;;;;;6.38;79.55;93083.00;519531;28;848;-71
2024/02/14 00:58:18;;;;;;;2.17;1.73;;;;;;;6.40;79.82;93088.69;519603;28;837;-71
2024/02/14 00:58:33;;;;;;;2.10;1.83;;;;;;;6.41;79.72;93087.44;519569;28;801;-70
2024/02/14 00:58:49;;;;;;;2.85;1.83;;;;;;;6.40;80.02;93080.47;519598;28;774;-71
2024/02/14 00:59:05;;;;;;;2.77;1.67;;;;;;;6.41;79.67;93081.97;519507;28;862;-70
2024/02/14 00:59:21;;;;;;;2.58;2.10;;;;;;;6.36;79.62;93074.56;519546;28;872;-70
2024/02/14 00:59:36;;;;;;;2.55;2.25;;;;;;;6.43;79.82;93085.63;519613;28;856;-70
2024/02/14 00:59:52;;;;;;;2.37;2.03;;;;;;;6.43;79.69;93080.13;519504;28;1969;-70
2024/02/14 01:00:08;;;;;;;3.08;2.38;;;;;;;6.44;79.51;93087.09;519641;28;845;-70
2024/02/14 01:00:24;;;;;;;3.67;2.67;;;;;;;6.44;79.49;93087.09;519439;28;880;-70
2024/02/14 01:00:39;;;;;;;3.65;2.70;;;;;;;6.44;79.48;93086.38;519631;28;809;-70
2024/02/14 01:00:55;;;;;;;3.20;2.40;;;;;;;6.45;79.48;93085.09;519598;28;801;-71
2024/02/14 01:01:12;;;;;;;3.77;2.63;;;;;;;6.44;79.37;93083.63;519566;28;821;-71
2024/02/14 01:01:27;;;;;;;3.60;2.70;;;;;;;6.43;79.54;93085.63;519605;28;1007;-70
2024/02/14 01:01:42;;;;;;;3.10;2.40;;;;;;;6.43;79.45;93082.16;519441;28;830;-70
2024/02/14 01:01:59;;;;;;;3.57;2.47;;;;;;;6.43;79.39;93084.91;519560;28;937;-70
2024/02/14 01:02:14;;;;;;;3.70;2.50;;;;;;;6.42;79.49;93086.91;519490;28;817;-70
2024/02/14 01:02:30;;;;;;;2.75;2.20;;;;;;;6.43;79.34;93093.84;519610;28;824;-70
2024/02/14 01:02:45;;;;;;;2.30;2.07;;;;;;;6.42;79.29;93088.91;519432;28;900;-70
2024/02/14 01:03:00;;;;;;;2.30;2.10;;;;;;;6.42;79.29;93086.91;519542;28;778;-70
2024/02/14 01:03:16;;;;;;;1.93;1.73;;;;;;;6.42;79.25;93086.16;519512;28;770;-70
2024/02/14 01:03:32;;;;;;;1.40;1.30;;;;;;;6.42;79.29;93083.41;519557;28;841;-70
2024/02/14 01:03:47;;;;;;;1.47;1.30;;;;;;;6.28;79.15;93063.50;519655;28;911;-70
2024/02/14 01:04:03;;;;;;;1.73;1.48;;;;;;;6.42;79.17;93086.16;519469;28;896;-70
2024/02/14 01:04:18;;;;;;;1.40;1.27;;;;;;;6.40;79.12;93081.22;519596;28;793;-70
2024/02/14 01:04:36;;;;;;;1.10;1.00;;;;;;;6.39;79.16;93082.47;519440;28;854;-70
2024/02/14 01:04:52;;;;;;;1.30;1.20;;;;;;;6.37;78.93;93087.00;519512;28;939;-70
2024/02/14 01:05:07;;;;;;;1.33;1.23;;;;;;;6.35;79.05;93090.28;519328;28;849;-70
2024/02/14 01:05:23;;;;;;;1.35;1.25;;;;;;;6.35;79.12;93084.06;519347;28;896;-70
2024/02/14 01:05:38;;;;;;;1.50;1.40;;;;;;;6.34;79.16;93093.56;519634;28;861;-70
2024/02/14 01:05:54;;;;;;;1.50;1.40;;;;;;;6.34;79.23;93088.81;519506;28;821;-71
2024/02/14 01:06:10;;;;;;;1.58;1.48;;;;;;;6.34;79.14;93088.81;519568;28;889;-70
2024/02/14 01:06:26;;;;;;;1.53;1.43;;;;;;;6.33;79.38;93087.34;519475;28;1001;-70
2024/02/14 01:06:42;;;;;;;1.35;1.25;;;;;;;6.32;79.18;93085.13;519571;28;876;-70
2024/02/14 01:06:58;;;;;;;1.40;1.30;;;;;;;6.32;79.19;93085.88;519550;28;848;-70
2024/02/14 01:07:13;;;;;;;1.42;1.33;;;;;;;6.31;79.30;93089.88;519467;28;853;-71
2024/02/14 01:07:29;;;;;;;1.50;1.40;;;;;;;6.31;79.10;93080.91;519596;28;904;-70
2024/02/14 01:07:46;;;;;;;1.50;1.40;;;;;;;6.29;79.14;93083.44;519427;28;790;-70
2024/02/14 01:08:01;;;;;;;1.58;1.40;;;;;;;6.30;79.10;93084.94;519604;28;881;-70
2024/02/14 01:08:17;;;;;;;1.67;1.58;;;;;;;6.30;79.25;93088.41;519561;28;868;-70
2024/02/14 01:08:34;;;;;;;1.70;1.60;;;;;;;6.30;79.06;93093.16;519490;28;798;-70
2024/02/14 01:08:49;;;;;;;1.65;1.55;;;;;;;6.30;79.21;93090.41;519549;28;853;-70
2024/02/14 01:09:05;;;;;;;1.83;1.73;;;;;;;6.29;79.18;93086.91;519561;28;821;-70
2024/02/14 01:09:20;;;;;;;1.80;1.70;;;;;;;6.28;79.25;93087.47;519535;28;869;-70
2024/02/14 01:09:36;;;;;;;1.77;1.67;;;;;;;6.29;79.13;93091.66;519581;28;802;-70
2024/02/14 01:09:51;;;;;;;1.98;1.77;;;;;;;6.28;79.27;93090.91;519485;28;876;-71
2024/02/14 01:10:07;;;;;;;1.95;1.67;;;;;;;6.30;79.26;93085.66;519530;28;814;-70
2024/02/14 01:10:23;;;;;;;2.08;1.70;;;;;;;6.30;79.20;93088.41;519397;28;898;-70
2024/02/14 01:10:38;;;;;;;2.70;2.10;;;;;;;6.32;79.08;93085.88;519577;28;770;-70
2024/02/14 01:10:54;;;;;;;2.80;2.10;;;;;;;6.32;79.26;93088.63;519559;28;852;-71
2024/02/14 01:11:10;;;;;;;2.03;1.63;;;;;;;6.14;79.01;93062.06;519566;28;912;-71
2024/02/14 01:11:25;;;;;;;1.75;1.65;;;;;;;6.35;79.16;93089.53;519380;28;773;-70
2024/02/14 01:11:41;;;;;;;2.13;1.75;;;;;;;6.34;79.13;93086.06;519504;28;1681;-70
2024/02/14 01:11:56;;;;;;;2.23;1.70;;;;;;;6.35;79.18;93087.53;519530;28;838;-71
2024/02/14 01:12:11;;;;;;;2.40;1.80;;;;;;;6.16;79.27;93056.03;519502;28;794;-70
2024/02/14 01:12:29;;;;;;;3.55;2.47;;;;;;;6.32;79.11;93085.88;519535;28;889;-70
2024/02/14 01:12:44;;;;;;;3.90;3.00;;;;;;;6.33;79.23;93089.34;519376;28;841;-70
2024/02/14 01:13:00;;;;;;;4.55;3.10;;;;;;;6.33;79.06;93090.06;519614;28;766;-70
2024/02/14 01:13:15;;;;;;;4.87;3.20;;;;;;;6.34;79.37;93088.06;519459;28;897;-70
2024/02/14 01:13:31;;;;;;;4.07;3.08;;;;;;;6.34;79.20;93088.06;519599;28;813;-71
2024/02/14 01:13:46;;;;;;;3.53;3.00;;;;;;;6.34;79.27;93093.56;519604;28;794;-71
2024/02/14 01:14:02;;;;;;;3.38;3.08;;;;;;;6.33;79.11;93092.81;519507;28;897;-71
2024/02/14 01:14:18;;;;;;;3.70;3.20;;;;;;;6.33;79.25;93087.34;519357;28;892;-71
2024/02/14 01:14:33;;;;;;;4.27;3.30;;;;;;;6.34;79.30;93088.81;519517;28;754;-71
2024/02/14 01:14:49;;;;;;;4.70;3.45;;;;;;;6.35;79.32;93087.53;519573;28;902;-71
2024/02/14 01:15:05;;;;;;;5.37;3.83;;;;;;;6.35;79.40;93089.53;519570;28;762;-70
2024/02/14 01:15:22;;;;;;;6.57;4.30;;;;;;;6.35;79.25;93090.28;519512;28;868;-71
2024/02/14 01:15:37;;;;;;;7.10;4.80;;;;;;;6.36;79.43;93085.53;519478;28;869;-70
2024/02/14 01:15:53;;;;;;;6.07;4.38;;;;;;;6.34;79.98;93083.34;519517;28;857;-70
2024/02/14 01:16:09;;;;;;;5.60;3.90;;;;;;;6.36;79.56;93085.53;519563;28;825;-70
2024/02/14 01:16:26;;;;;;;5.78;3.78;;;;;;;6.36;79.53;93089.03;519449;28;833;-71
2024/02/14 01:16:45;;;;;;;4.72;3.17;;;;;;;6.24;79.50;93073.34;519541;28;888;-71
2024/02/14 01:17:00;;;;;;;3.58;2.92;;;;;;;6.34;79.43;93088.81;519498;28;880;-71
2024/02/14 01:17:16;;;;;;;3.80;3.05;;;;;;;6.34;79.35;93088.06;519506;28;769;-70
2024/02/14 01:17:31;;;;;;;3.37;2.73;;;;;;;6.15;79.54;93062.81;519598;28;774;-71
2024/02/14 01:17:47;;;;;;;2.97;2.50;;;;;;;6.31;79.61;93086.38;519473;28;810;-70